createdAt,value
2017-10-02T00:01:38.702Z,72.66
2017-10-02T00:04:06.175Z,73.73
2017-10-02T00:06:33.558Z,73.00
2017-10-02T00:09:00.958Z,72.55
2017-10-02T00:11:28.375Z,72.76
2017-10-02T00:13:55.783Z,73.16
2017-10-02T00:16:23.459Z,73.66
2017-10-02T00:18:50.870Z,73.53
2017-10-02T00:21:18.266Z,73.46
2017-10-02T00:23:45.668Z,73.01
2017-10-02T00:26:13.088Z,72.70
2017-10-02T00:28:40.479Z,72.83
2017-10-02T00:31:07.888Z,73.58
2017-10-02T00:33:35.299Z,73.64
2017-10-02T00:36:02.712Z,73.87
2017-10-02T00:38:30.106Z,74.16
2017-10-02T00:40:57.514Z,74.28
2017-10-02T00:43:24.916Z,74.34
2017-10-02T00:45:52.311Z,73.63
2017-10-02T00:48:19.732Z,73.62
2017-10-02T00:50:47.131Z,74.03
2017-10-02T00:53:14.535Z,72.89
2017-10-02T00:55:41.957Z,73.35
2017-10-02T00:58:09.355Z,73.43
2017-10-02T01:00:36.807Z,72.81
2017-10-02T01:03:04.227Z,73.04
2017-10-02T01:05:31.670Z,73.16
2017-10-02T01:07:59.067Z,73.14
2017-10-02T01:10:26.504Z,72.58
2017-10-02T01:12:53.913Z,73.00
2017-10-02T01:15:21.303Z,72.09
2017-10-02T01:17:48.718Z,72.26
2017-10-02T01:20:16.118Z,72.02
2017-10-02T01:22:43.522Z,71.54
2017-10-02T01:25:10.940Z,72.01
2017-10-02T01:27:38.340Z,71.63
2017-10-02T01:30:05.735Z,71.93
2017-10-02T01:32:33.159Z,70.68
2017-10-02T01:35:00.608Z,70.60
2017-10-02T01:37:28.002Z,71.55
2017-10-02T01:39:55.423Z,71.70
2017-10-02T01:42:22.819Z,71.81
2017-10-02T01:44:50.229Z,71.29
2017-10-02T01:47:17.643Z,69.94
2017-10-02T01:49:45.056Z,69.50
2017-10-02T01:52:12.450Z,69.74
2017-10-02T01:54:39.872Z,69.57
2017-10-02T01:57:07.283Z,69.68
2017-10-02T01:59:34.682Z,69.00
2017-10-02T02:02:02.099Z,70.12
2017-10-02T02:04:29.499Z,70.37
2017-10-02T02:06:56.899Z,70.37
2017-10-02T02:09:24.336Z,69.77
2017-10-02T02:11:51.738Z,70.61
2017-10-02T02:14:19.140Z,70.83
2017-10-02T02:16:46.558Z,72.12
2017-10-02T02:19:13.964Z,72.63
2017-10-02T02:21:41.375Z,72.81
2017-10-02T02:24:08.790Z,73.12
2017-10-02T02:26:36.183Z,74.09
2017-10-02T02:29:03.579Z,74.04
2017-10-02T02:31:30.987Z,75.15
2017-10-02T02:33:58.397Z,77.26
2017-10-02T02:36:25.801Z,78.15
2017-10-02T02:38:53.211Z,79.25
2017-10-02T02:41:20.607Z,80.01
2017-10-02T02:43:47.999Z,80.47
2017-10-02T02:46:15.416Z,80.61
2017-10-02T02:48:42.862Z,81.46
2017-10-02T02:51:10.253Z,81.63
2017-10-02T02:53:37.659Z,81.99
2017-10-02T02:56:05.058Z,82.13
2017-10-02T02:58:32.455Z,82.79
2017-10-02T03:00:59.871Z,83.55
2017-10-02T03:03:27.275Z,83.20
2017-10-02T03:05:54.671Z,83.27
2017-10-02T03:08:22.100Z,83.26
2017-10-02T03:10:49.499Z,83.81
2017-10-02T03:13:16.898Z,83.95
2017-10-02T03:15:44.310Z,83.59
2017-10-02T03:18:11.707Z,83.63
2017-10-02T03:20:39.108Z,83.78
2017-10-02T03:23:06.528Z,83.11
2017-10-02T03:25:33.923Z,82.71
2017-10-02T03:28:01.327Z,82.64
2017-10-02T03:30:28.735Z,83.31
2017-10-02T03:32:56.135Z,83.70
2017-10-02T03:35:23.539Z,82.88
2017-10-02T03:37:50.950Z,83.55
2017-10-02T03:40:18.347Z,84.17
2017-10-02T03:42:45.742Z,83.77
2017-10-02T03:45:13.167Z,83.96
2017-10-02T03:47:40.579Z,84.55
2017-10-02T03:50:07.979Z,84.73
2017-10-02T03:52:35.397Z,84.99
2017-10-02T03:55:02.791Z,85.24
2017-10-02T03:57:30.196Z,85.13
2017-10-02T03:59:57.606Z,85.05
2017-10-02T04:02:25.003Z,85.45
2017-10-02T04:04:52.411Z,85.27
2017-10-02T04:07:19.855Z,86.12
2017-10-02T04:09:47.259Z,86.46
2017-10-02T04:12:14.662Z,87.04
2017-10-02T04:14:42.080Z,86.98
2017-10-02T04:17:09.480Z,87.33
2017-10-02T04:19:36.871Z,87.25
2017-10-02T04:22:04.287Z,87.72
2017-10-02T04:24:31.686Z,87.72
2017-10-02T04:26:59.086Z,87.87
2017-10-02T04:29:26.503Z,88.40
2017-10-02T04:31:53.906Z,88.42
2017-10-02T04:34:21.307Z,88.04
2017-10-02T04:36:48.726Z,88.21
2017-10-02T04:39:16.123Z,88.42
2017-10-02T04:41:43.518Z,88.49
2017-10-02T04:44:10.926Z,88.57
2017-10-02T04:46:38.327Z,88.64
2017-10-02T04:49:05.727Z,89.03
2017-10-02T04:51:33.155Z,89.09
2017-10-02T04:54:00.558Z,88.75
2017-10-02T04:56:28.718Z,88.91
2017-10-02T04:58:56.127Z,89.00
2017-10-02T05:01:23.533Z,88.90
2017-10-02T05:03:50.928Z,88.64
2017-10-02T05:06:18.335Z,88.84
2017-10-02T05:08:45.723Z,88.95
2017-10-02T05:11:13.126Z,89.00
2017-10-02T05:13:40.535Z,88.91
2017-10-02T05:16:07.932Z,88.98
2017-10-02T05:18:35.335Z,88.97
2017-10-02T05:21:02.775Z,88.95
2017-10-02T05:23:30.172Z,88.84
2017-10-02T05:25:57.574Z,89.04
2017-10-02T05:28:24.986Z,89.37
2017-10-02T05:30:52.394Z,88.98
2017-10-02T05:33:19.802Z,88.88
2017-10-02T05:35:47.231Z,89.00
2017-10-02T05:38:14.630Z,88.83
2017-10-02T05:40:42.052Z,88.86
2017-10-02T05:43:09.451Z,88.74
2017-10-02T05:45:36.842Z,88.89
2017-10-02T05:48:04.235Z,89.10
2017-10-02T05:50:31.643Z,88.90
2017-10-02T05:52:59.031Z,89.10
2017-10-02T05:55:26.426Z,89.03
2017-10-02T05:57:53.835Z,89.00
2017-10-02T06:00:21.223Z,89.10
2017-10-02T06:02:48.610Z,89.03
2017-10-02T06:05:16.018Z,89.06
2017-10-02T06:07:43.411Z,88.65
2017-10-02T06:10:10.802Z,88.63
2017-10-02T06:12:38.212Z,88.58
2017-10-02T06:15:05.653Z,88.56
2017-10-02T06:17:33.035Z,88.27
2017-10-02T06:20:00.446Z,88.39
2017-10-02T06:22:27.842Z,88.58
2017-10-02T06:24:55.230Z,88.65
2017-10-02T06:27:22.640Z,88.60
2017-10-02T06:29:50.024Z,88.60
2017-10-02T06:32:17.409Z,88.58
2017-10-02T06:34:44.835Z,88.57
2017-10-02T06:37:12.232Z,88.39
2017-10-02T06:39:39.642Z,88.32
2017-10-02T06:42:07.039Z,88.37
2017-10-02T06:44:34.431Z,88.41
2017-10-02T06:47:01.820Z,88.49
2017-10-02T06:49:29.227Z,88.66
2017-10-02T06:51:56.619Z,88.50
2017-10-02T06:54:24.011Z,88.25
2017-10-02T06:56:51.414Z,88.20
2017-10-02T06:59:18.807Z,88.50
2017-10-02T07:01:46.206Z,88.33
2017-10-02T07:04:13.619Z,88.32
2017-10-02T07:06:41.008Z,88.09
2017-10-02T07:09:08.404Z,87.97
2017-10-02T07:11:35.802Z,88.09
2017-10-02T07:14:03.200Z,88.22
2017-10-02T07:16:30.592Z,87.72
2017-10-02T07:18:57.995Z,87.42
2017-10-02T07:21:25.387Z,86.98
2017-10-02T07:23:52.781Z,87.24
2017-10-02T07:26:20.191Z,87.21
2017-10-02T07:28:47.580Z,87.52
2017-10-02T07:31:14.975Z,87.29
2017-10-02T07:33:42.379Z,87.55
2017-10-02T07:36:09.771Z,87.48
2017-10-02T07:38:37.164Z,87.70
2017-10-02T07:41:04.579Z,87.84
2017-10-02T07:43:31.972Z,87.70
2017-10-02T07:45:59.374Z,87.26
2017-10-02T07:48:26.779Z,87.31
2017-10-02T07:50:54.175Z,87.23
2017-10-02T07:53:21.599Z,87.36
2017-10-02T07:55:49.016Z,87.75
2017-10-02T07:58:16.411Z,87.69
2017-10-02T08:00:43.799Z,87.30
2017-10-02T08:03:11.219Z,87.36
2017-10-02T08:05:38.614Z,87.30
2017-10-02T08:08:06.012Z,87.10
2017-10-02T08:10:33.435Z,87.19
2017-10-02T08:13:00.827Z,87.53
2017-10-02T08:15:28.218Z,87.25
2017-10-02T08:18:16.517Z,87.71
2017-10-02T08:20:43.903Z,87.30
2017-10-02T08:23:11.303Z,87.75
2017-10-02T08:25:38.712Z,87.79
2017-10-02T08:28:06.108Z,87.92
2017-10-02T08:30:33.494Z,88.17
2017-10-02T08:33:00.895Z,87.80
2017-10-02T08:35:28.283Z,88.11
2017-10-02T08:37:55.679Z,87.91
2017-10-02T08:40:23.090Z,88.18
2017-10-02T08:42:50.484Z,88.02
2017-10-02T08:45:17.874Z,87.60
2017-10-02T08:47:45.286Z,87.79
2017-10-02T08:50:12.679Z,88.31
2017-10-02T08:52:40.078Z,88.48
2017-10-02T08:55:07.483Z,88.37
2017-10-02T08:57:34.876Z,88.41
2017-10-02T09:00:02.266Z,88.44
2017-10-02T09:02:29.675Z,88.40
2017-10-02T09:04:57.067Z,88.37
2017-10-02T09:07:24.459Z,88.22
2017-10-02T09:09:51.875Z,88.49
2017-10-02T09:12:19.266Z,88.51
2017-10-02T09:14:46.665Z,88.46
2017-10-02T09:17:14.067Z,88.67
2017-10-02T09:19:41.454Z,88.68
2017-10-02T09:22:08.849Z,88.83
2017-10-02T09:24:36.260Z,88.95
2017-10-02T09:27:03.659Z,89.13
2017-10-02T09:29:31.053Z,89.26
2017-10-02T09:31:58.459Z,88.97
2017-10-02T09:34:25.863Z,88.50
2017-10-02T09:36:53.258Z,88.56
2017-10-02T09:39:20.667Z,88.63
2017-10-02T09:41:48.063Z,88.52
2017-10-02T09:44:15.462Z,88.12
2017-10-02T09:46:42.863Z,88.17
2017-10-02T09:49:10.264Z,87.94
2017-10-02T09:51:37.650Z,88.01
2017-10-02T09:54:05.064Z,87.85
2017-10-02T09:56:32.464Z,87.88
2017-10-02T09:58:59.851Z,88.05
2017-10-02T10:01:27.264Z,87.87
2017-10-02T10:03:54.655Z,87.95
2017-10-02T10:06:22.043Z,87.66
2017-10-02T10:08:49.451Z,87.73
2017-10-02T10:11:16.851Z,87.25
2017-10-02T10:13:44.231Z,87.09
2017-10-02T10:16:11.653Z,86.38
2017-10-02T10:18:39.044Z,86.73
2017-10-02T10:21:06.439Z,85.72
2017-10-02T10:23:33.847Z,85.98
2017-10-02T10:26:01.250Z,85.59
2017-10-02T10:28:28.640Z,84.84
2017-10-02T10:30:56.043Z,85.16
2017-10-02T10:33:23.435Z,85.15
2017-10-02T10:35:50.832Z,84.63
2017-10-02T10:38:18.241Z,84.61
2017-10-02T10:40:45.632Z,84.17
2017-10-02T10:43:13.028Z,84.30
2017-10-02T10:45:40.439Z,84.64
2017-10-02T10:48:07.835Z,83.96
2017-10-02T10:50:35.226Z,84.33
2017-10-02T10:53:02.640Z,84.06
2017-10-02T10:55:30.035Z,83.69
2017-10-02T10:57:57.430Z,83.04
2017-10-02T11:00:24.855Z,83.71
2017-10-02T11:02:52.251Z,83.52
2017-10-02T11:05:19.642Z,83.39
2017-10-02T11:07:47.040Z,83.95
2017-10-02T11:10:14.426Z,81.81
2017-10-02T11:12:41.820Z,81.28
2017-10-02T11:15:09.223Z,80.17
2017-10-02T11:17:36.610Z,78.89
2017-10-02T11:20:04.007Z,79.39
2017-10-02T11:22:31.419Z,78.78
2017-10-02T11:24:58.810Z,79.30
2017-10-02T11:27:26.195Z,79.40
2017-10-02T11:29:53.696Z,80.67
2017-10-02T11:32:21.087Z,81.63
2017-10-02T11:34:48.475Z,80.63
2017-10-02T11:37:15.879Z,81.26
2017-10-02T11:39:43.271Z,82.26
2017-10-02T11:42:10.659Z,80.61
2017-10-02T11:44:38.067Z,80.66
2017-10-02T11:47:05.468Z,75.35
2017-10-02T11:49:32.864Z,70.98
2017-10-02T11:52:00.276Z,71.07
2017-10-02T11:54:27.667Z,70.92
2017-10-02T11:56:55.070Z,67.72
2017-10-02T11:59:22.471Z,68.70
2017-10-02T12:01:49.875Z,67.87
2017-10-02T12:04:17.271Z,66.07
2017-10-02T12:06:44.696Z,65.78
2017-10-02T12:09:12.094Z,62.48
2017-10-02T12:11:39.491Z,63.58
2017-10-02T12:14:06.907Z,64.02
2017-10-02T12:16:34.312Z,62.09
2017-10-02T12:19:01.704Z,61.49
2017-10-02T12:21:29.116Z,63.03
2017-10-02T12:23:56.515Z,60.04
2017-10-02T12:26:23.911Z,60.90
2017-10-02T12:28:51.326Z,61.14
2017-10-02T12:31:18.726Z,61.15
2017-10-02T12:33:46.123Z,61.55
2017-10-02T12:36:13.535Z,61.80
2017-10-02T12:38:40.935Z,62.43
2017-10-02T12:41:08.335Z,63.17
2017-10-02T12:43:35.744Z,63.54
2017-10-02T12:46:03.135Z,62.96
2017-10-02T12:48:30.532Z,63.67
2017-10-02T12:50:57.955Z,59.41
2017-10-02T12:53:25.355Z,57.04
2017-10-02T12:55:52.747Z,55.72
2017-10-02T12:58:20.167Z,54.69
2017-10-02T13:00:47.571Z,54.08
2017-10-02T13:03:15.016Z,55.58
2017-10-02T13:05:42.435Z,57.44
2017-10-02T13:08:09.911Z,58.77
2017-10-02T13:10:37.296Z,56.58
2017-10-02T13:13:04.715Z,57.01
2017-10-02T13:15:32.199Z,57.33
2017-10-02T13:17:59.593Z,53.71
2017-10-02T13:20:27.007Z,56.52
2017-10-02T13:22:54.421Z,53.47
2017-10-02T13:25:21.830Z,51.82
2017-10-02T13:27:49.251Z,51.84
2017-10-02T13:30:16.662Z,52.97
2017-10-02T13:32:44.067Z,53.57
2017-10-02T13:35:11.495Z,52.77
2017-10-02T13:37:38.890Z,53.70
2017-10-02T13:40:06.291Z,52.08
2017-10-02T13:42:33.744Z,53.22
2017-10-02T13:45:01.151Z,53.52
2017-10-02T13:47:28.559Z,51.31
2017-10-02T13:49:55.986Z,52.23
2017-10-02T13:52:23.383Z,53.71
2017-10-02T13:54:50.795Z,52.73
2017-10-02T13:57:18.224Z,53.81
2017-10-02T13:59:45.625Z,52.10
2017-10-02T14:02:13.026Z,52.68
2017-10-02T14:04:40.471Z,51.80
2017-10-02T14:07:07.889Z,53.31
2017-10-02T14:09:40.543Z,53.89
2017-10-02T14:12:08.027Z,54.32
2017-10-02T14:14:36.118Z,54.45
2017-10-02T14:17:03.516Z,53.67
2017-10-02T14:19:31.002Z,54.13
2017-10-02T14:21:58.383Z,54.56
2017-10-02T14:24:25.782Z,53.52
2017-10-02T14:26:53.200Z,54.29
2017-10-02T14:29:20.602Z,54.15
2017-10-02T14:31:48.006Z,54.71
2017-10-02T14:34:15.419Z,53.90
2017-10-02T14:36:42.815Z,54.35
2017-10-02T14:39:10.220Z,54.52
2017-10-02T14:41:37.643Z,55.54
2017-10-02T14:44:05.043Z,54.55
2017-10-02T14:46:32.443Z,54.25
2017-10-02T14:48:59.860Z,54.34
2017-10-02T14:51:27.254Z,55.14
2017-10-02T14:53:54.655Z,55.07
2017-10-02T14:56:22.067Z,55.48
2017-10-02T14:58:49.465Z,54.70
2017-10-02T15:01:16.919Z,55.63
2017-10-02T15:03:44.322Z,55.92
2017-10-02T15:06:11.723Z,54.88
2017-10-02T15:08:39.130Z,55.58
2017-10-02T15:11:06.539Z,55.42
2017-10-02T15:13:33.943Z,55.83
2017-10-02T15:16:01.342Z,55.92
2017-10-02T15:18:28.774Z,55.95
2017-10-02T15:20:56.175Z,54.45
2017-10-02T15:23:23.799Z,55.66
2017-10-02T15:25:51.215Z,55.85
2017-10-02T15:28:18.611Z,55.71
2017-10-02T15:30:46.024Z,56.10
2017-10-02T15:33:13.442Z,55.28
2017-10-02T15:35:40.853Z,54.84
2017-10-02T15:38:08.252Z,55.61
2017-10-02T15:40:35.670Z,56.06
2017-10-02T15:43:03.074Z,56.38
2017-10-02T15:45:30.480Z,56.01
2017-10-02T15:47:57.903Z,55.92
2017-10-02T15:50:25.307Z,55.21
2017-10-02T15:52:52.715Z,55.96
2017-10-02T15:55:20.279Z,55.95
2017-10-02T15:57:47.709Z,56.12
2017-10-02T16:00:15.099Z,56.48
2017-10-02T16:02:42.539Z,57.35
2017-10-02T16:05:09.978Z,57.39
2017-10-02T16:07:37.413Z,56.95
2017-10-02T16:10:04.821Z,56.13
2017-10-02T16:12:32.217Z,56.86
2017-10-02T16:14:59.643Z,55.85
2017-10-02T16:17:27.058Z,56.51
2017-10-02T16:19:54.463Z,55.81
2017-10-02T16:22:28.426Z,56.30
2017-10-02T16:24:55.824Z,56.17
2017-10-02T16:27:23.223Z,56.58
2017-10-02T16:29:50.665Z,56.62
2017-10-02T16:32:18.067Z,56.49
2017-10-02T16:34:45.475Z,56.83
2017-10-02T16:37:12.883Z,58.25
2017-10-02T16:39:40.303Z,57.89
2017-10-02T16:42:07.707Z,57.64
2017-10-02T16:44:35.123Z,58.41
2017-10-02T16:47:02.527Z,58.72
2017-10-02T16:49:29.946Z,59.04
2017-10-02T16:51:57.384Z,59.00
2017-10-02T16:54:24.787Z,59.48
2017-10-02T16:56:52.196Z,59.53
2017-10-02T16:59:19.650Z,59.84
2017-10-02T17:01:47.047Z,60.03
2017-10-02T17:04:14.454Z,60.16
2017-10-02T17:06:41.858Z,60.28
2017-10-02T17:09:09.264Z,60.16
2017-10-02T17:11:36.654Z,60.27
2017-10-02T17:14:04.091Z,60.23
2017-10-02T17:16:31.487Z,59.92
2017-10-02T17:18:58.887Z,60.15
2017-10-02T17:21:26.303Z,59.48
2017-10-02T17:23:53.707Z,58.95
2017-10-02T17:26:21.115Z,58.57
2017-10-02T17:28:48.526Z,58.21
2017-10-02T17:31:15.923Z,58.17
2017-10-02T17:33:43.322Z,57.87
2017-10-02T17:36:10.735Z,57.15
2017-10-02T17:38:38.131Z,57.14
2017-10-02T17:41:05.528Z,57.80
2017-10-02T17:43:32.936Z,57.52
2017-10-02T17:46:00.339Z,57.26
2017-10-02T17:48:28.635Z,57.24
2017-10-02T17:50:59.176Z,57.74
2017-10-02T17:53:26.571Z,57.07
2017-10-02T17:55:55.250Z,57.42
2017-10-02T17:58:24.856Z,57.78
2017-10-02T18:00:52.247Z,58.03
2017-10-02T18:03:19.731Z,57.59
2017-10-02T18:05:47.142Z,58.43
2017-10-02T18:08:14.552Z,58.40
2017-10-02T18:10:41.996Z,58.76
2017-10-02T18:13:09.406Z,58.73
2017-10-02T18:15:38.364Z,58.86
2017-10-02T18:18:05.755Z,59.13
2017-10-02T18:20:33.199Z,59.66
2017-10-02T18:23:00.596Z,60.10
2017-10-02T18:25:27.998Z,59.93
2017-10-02T18:28:02.023Z,60.36
2017-10-02T18:30:29.424Z,59.98
2017-10-02T18:32:56.828Z,60.53
2017-10-02T18:35:24.240Z,61.23
2017-10-02T18:37:52.288Z,61.62
2017-10-02T18:40:19.691Z,62.35
2017-10-02T18:42:47.107Z,62.58
2017-10-02T18:45:14.525Z,62.63
2017-10-02T18:47:41.935Z,62.52
2017-10-02T18:50:10.198Z,63.00
2017-10-02T18:52:37.595Z,62.61
2017-10-02T18:55:05.011Z,62.58
2017-10-02T18:57:32.439Z,63.01
2017-10-02T18:59:59.830Z,63.82
2017-10-02T19:02:27.237Z,63.90
2017-10-02T19:05:00.383Z,63.96
2017-10-02T19:07:27.778Z,64.17
2017-10-02T19:09:55.186Z,64.08
2017-10-02T19:12:22.597Z,63.77
2017-10-02T19:14:49.996Z,63.97
2017-10-02T19:17:17.492Z,64.01
2017-10-02T19:19:44.893Z,64.11
2017-10-02T19:22:12.345Z,63.99
2017-10-02T19:24:39.755Z,64.44
2017-10-02T19:27:07.179Z,64.76
2017-10-02T19:29:34.585Z,65.09
2017-10-02T19:32:01.984Z,65.29
2017-10-02T19:34:30.009Z,65.37
2017-10-02T19:36:57.406Z,65.61
2017-10-02T19:39:24.804Z,65.78
2017-10-02T19:41:52.232Z,65.86
2017-10-02T19:44:19.660Z,65.97
2017-10-02T19:46:47.063Z,66.46
2017-10-02T19:49:17.631Z,66.57
2017-10-02T19:51:45.033Z,66.69
2017-10-02T19:54:12.424Z,66.67
2017-10-02T19:56:39.851Z,67.03
2017-10-02T19:59:07.250Z,67.15
2017-10-02T20:01:34.646Z,66.66
2017-10-02T20:04:02.079Z,67.05
2017-10-02T20:06:29.474Z,66.47
2017-10-02T20:08:56.879Z,66.49
2017-10-02T20:11:24.299Z,66.41
2017-10-02T20:13:51.699Z,66.59
2017-10-02T20:16:19.117Z,66.58
2017-10-02T20:18:46.535Z,66.87
2017-10-02T20:21:13.931Z,66.93
2017-10-02T20:23:41.343Z,67.36
2017-10-02T20:26:08.775Z,67.19
2017-10-02T20:28:36.181Z,67.36
2017-10-02T20:31:03.572Z,67.21
2017-10-02T20:33:30.998Z,66.55
2017-10-02T20:35:58.391Z,67.01
2017-10-02T20:38:25.786Z,67.29
2017-10-02T20:40:53.204Z,67.30
2017-10-02T20:43:20.599Z,67.71
2017-10-02T20:45:48.002Z,68.77
2017-10-02T20:48:15.410Z,68.94
2017-10-02T20:50:42.811Z,68.81
2017-10-02T20:53:10.224Z,69.49
2017-10-02T20:55:37.631Z,69.48
2017-10-02T20:58:05.035Z,69.30
2017-10-02T21:00:32.434Z,69.00
2017-10-02T21:02:59.846Z,69.19
2017-10-02T21:05:27.247Z,69.47
2017-10-02T21:07:54.648Z,69.69
2017-10-02T21:10:22.055Z,70.29
2017-10-02T21:12:49.507Z,70.31
2017-10-02T21:15:16.890Z,69.86
2017-10-02T21:17:44.324Z,70.38
2017-10-02T21:20:11.714Z,70.51
2017-10-02T21:22:39.119Z,71.00
2017-10-02T21:25:06.531Z,71.47
2017-10-02T21:27:33.933Z,72.74
2017-10-02T21:30:01.336Z,73.35
2017-10-02T21:32:28.755Z,74.77
2017-10-02T21:34:56.147Z,75.93
2017-10-02T21:37:23.556Z,76.13
2017-10-02T21:39:50.975Z,77.01
2017-10-02T21:42:18.365Z,78.13
2017-10-02T21:44:45.785Z,79.18
2017-10-02T21:47:13.200Z,79.57
2017-10-02T21:49:40.598Z,80.98
2017-10-02T21:52:07.994Z,81.28
2017-10-02T21:54:35.419Z,81.97
2017-10-02T21:57:02.815Z,82.87
2017-10-02T21:59:30.208Z,83.62
2017-10-02T22:01:57.626Z,83.92
2017-10-02T22:04:25.023Z,83.94
2017-10-02T22:06:52.423Z,84.53
2017-10-02T22:09:19.832Z,85.01
2017-10-02T22:11:47.236Z,85.34
2017-10-02T22:14:14.631Z,86.26
2017-10-02T22:16:42.042Z,86.06
2017-10-02T22:19:09.451Z,85.92
2017-10-02T22:21:36.844Z,87.21
2017-10-02T22:24:04.265Z,87.58
2017-10-02T22:26:31.679Z,87.80
2017-10-02T22:28:59.070Z,87.38
2017-10-02T22:31:26.496Z,88.25
2017-10-02T22:33:53.898Z,88.39
2017-10-02T22:36:21.290Z,88.87
2017-10-02T22:38:48.705Z,88.81
2017-10-02T22:41:16.109Z,88.76
2017-10-02T22:43:43.519Z,88.53
2017-10-02T22:46:10.931Z,89.00
2017-10-02T22:48:38.336Z,89.33
2017-10-02T22:51:05.728Z,89.65
2017-10-02T22:53:33.139Z,89.60
2017-10-02T22:56:00.544Z,90.30
2017-10-02T22:58:27.947Z,91.12
2017-10-02T23:00:55.351Z,90.47
2017-10-02T23:03:22.751Z,90.46
2017-10-02T23:05:50.153Z,90.01
2017-10-02T23:08:17.571Z,90.89
2017-10-02T23:10:44.980Z,90.50
2017-10-02T23:13:12.375Z,90.13
2017-10-02T23:15:40.388Z,90.19
2017-10-02T23:18:07.789Z,90.09
2017-10-02T23:20:35.195Z,90.12
2017-10-02T23:23:02.611Z,89.71
2017-10-02T23:25:30.005Z,89.79
2017-10-02T23:27:57.407Z,89.73
2017-10-02T23:30:24.819Z,89.75
2017-10-02T23:32:52.219Z,90.07
2017-10-02T23:35:19.616Z,90.10
2017-10-02T23:37:47.035Z,90.65
2017-10-02T23:40:14.435Z,90.44
2017-10-02T23:42:41.843Z,90.37
2017-10-02T23:45:09.246Z,90.43
2017-10-02T23:47:36.643Z,90.31
2017-10-02T23:50:04.043Z,90.80
2017-10-02T23:52:31.455Z,91.17
2017-10-02T23:54:58.852Z,90.80
2017-10-02T23:57:26.255Z,90.92
2017-10-02T23:59:53.671Z,91.11
